createdAt,value
2022-10-30T00:01:26.680Z,101007.86
2022-10-30T00:03:55.249Z,101013.55
2022-10-30T00:06:24.424Z,101010.39
2022-10-30T00:08:52.929Z,101018.05
2022-10-30T00:11:21.380Z,101020.59
2022-10-30T00:13:50.293Z,101017.67
2022-10-30T00:16:21.162Z,101008.72
2022-10-30T00:18:49.949Z,101006.64
2022-10-30T00:21:20.297Z,101002.77
2022-10-30T00:23:49.972Z,101006.14
2022-10-30T00:26:19.967Z,101013.96
2022-10-30T00:28:50.743Z,101006.02
2022-10-30T00:31:20.028Z,100999.03
2022-10-30T00:33:51.463Z,100991.94
2022-10-30T00:36:20.344Z,100995.94
2022-10-30T00:38:48.919Z,100997.14
2022-10-30T00:41:19.451Z,100992.54
2022-10-30T00:43:48.204Z,101000.81
2022-10-30T00:46:20.318Z,101004.95
2022-10-30T00:48:52.679Z,101005.75
2022-10-30T00:51:21.785Z,100994.70
2022-10-30T00:53:50.815Z,100980.21
2022-10-30T00:56:20.785Z,100979.04
2022-10-30T00:58:56.898Z,100976.02
2022-10-30T01:01:28.977Z,100976.30
2022-10-30T01:04:00.434Z,100976.14
2022-10-30T01:06:30.918Z,100978.35
2022-10-30T01:09:00.413Z,100977.08
2022-10-30T01:11:31.346Z,100988.75
2022-10-30T01:14:03.149Z,100994.57
2022-10-30T01:16:44.091Z,100996.57
2022-10-30T01:19:20.480Z,100992.67
2022-10-30T01:21:57.166Z,100992.30
2022-10-30T01:24:42.610Z,100999.38
2022-10-30T01:27:25.929Z,101007.70
2022-10-30T01:30:00.257Z,101011.18
2022-10-30T01:32:42.186Z,101008.23
2022-10-30T01:35:16.463Z,101003.13
2022-10-30T01:37:50.739Z,100992.69
2022-10-30T01:40:20.698Z,100986.56
2022-10-30T01:42:53.274Z,100985.89
2022-10-30T01:45:32.651Z,100990.89
2022-10-30T01:48:25.163Z,100990.91
2022-10-30T01:50:59.385Z,100992.36
2022-10-30T01:53:40.297Z,100986.04
2022-10-30T01:56:18.108Z,100983.03
2022-10-30T01:58:50.747Z,100987.13
2022-10-30T02:01:19.652Z,100988.23
2022-10-30T02:03:48.682Z,100990.30
2022-10-30T02:06:17.662Z,100991.05
2022-10-30T02:08:46.188Z,100993.21
2022-10-30T02:11:15.838Z,100992.67
2022-10-30T02:13:44.672Z,100993.67
2022-10-30T02:16:13.551Z,100997.08
2022-10-30T02:18:42.369Z,100997.37
2022-10-30T02:21:10.972Z,100995.79
2022-10-30T02:23:40.705Z,101000.29
2022-10-30T02:26:09.089Z,100996.27
2022-10-30T02:28:37.561Z,100999.27
2022-10-30T02:31:07.118Z,100996.67
2022-10-30T02:33:35.547Z,101000.76
2022-10-30T02:36:05.037Z,101008.03
2022-10-30T02:38:33.787Z,101014.03
2022-10-30T02:41:02.313Z,101009.61
2022-10-30T02:43:30.840Z,101004.82
2022-10-30T02:46:00.063Z,101003.78
2022-10-30T02:48:28.357Z,100998.83
2022-10-30T02:51:05.497Z,101006.39
2022-10-30T02:53:34.288Z,101008.88
2022-10-30T02:56:06.017Z,101004.64
2022-10-30T02:58:35.104Z,101008.16
2022-10-30T03:01:08.161Z,101004.75
2022-10-30T03:03:37.556Z,101008.89
2022-10-30T03:06:08.194Z,101011.02
2022-10-30T03:08:37.106Z,101009.39
2022-10-30T03:11:07.897Z,101009.91
2022-10-30T03:13:37.241Z,101006.77
2022-10-30T03:16:09.141Z,101009.34
2022-10-30T03:18:37.696Z,101015.35
2022-10-30T03:21:08.445Z,101019.79
2022-10-30T03:23:38.177Z,101027.41
2022-10-30T03:26:07.442Z,101031.23
2022-10-30T03:28:36.253Z,101030.80
2022-10-30T03:31:07.229Z,101021.73
2022-10-30T03:33:36.589Z,101018.89
2022-10-30T03:36:08.840Z,101028.23
2022-10-30T03:38:37.765Z,101024.86
2022-10-30T03:41:07.020Z,101032.67
2022-10-30T03:43:35.515Z,101027.67
2022-10-30T03:46:05.875Z,101026.62
2022-10-30T03:48:34.295Z,101025.06
2022-10-30T03:51:02.833Z,101027.96
2022-10-30T03:53:31.304Z,101028.77
2022-10-30T03:56:01.286Z,101023.65
2022-10-30T03:58:30.410Z,101023.89
2022-10-30T04:01:02.184Z,101025.44
2022-10-30T04:03:30.793Z,101028.14
2022-10-30T04:05:59.474Z,101027.06
2022-10-30T04:08:28.231Z,101022.11
2022-10-30T04:10:56.642Z,101022.28
2022-10-30T04:13:25.469Z,101022.89
2022-10-30T04:15:57.983Z,101023.88
2022-10-30T04:18:28.732Z,101022.73
2022-10-30T04:20:59.879Z,101020.09
2022-10-30T04:23:28.357Z,101020.77
2022-10-30T04:25:56.978Z,101018.20
2022-10-30T04:28:25.638Z,101019.33
2022-10-30T04:30:54.127Z,101012.06
2022-10-30T04:33:22.664Z,101014.94
2022-10-30T04:35:51.364Z,101005.81
2022-10-30T04:38:19.923Z,100999.20
2022-10-30T04:40:48.571Z,101001.58
2022-10-30T04:43:17.462Z,100998.88
2022-10-30T04:45:45.828Z,101002.13
2022-10-30T04:48:15.894Z,100996.35
2022-10-30T04:50:45.018Z,100994.84
2022-10-30T04:53:14.672Z,100992.79
2022-10-30T04:55:43.985Z,100984.46
2022-10-30T04:58:13.221Z,100982.84
2022-10-30T05:00:41.886Z,100982.42
2022-10-30T05:03:15.319Z,100990.85
2022-10-30T05:05:44.052Z,100997.17
2022-10-30T05:08:12.438Z,100998.62
2022-10-30T05:10:41.549Z,101005.80
2022-10-30T05:13:11.853Z,101006.52
2022-10-30T05:15:40.257Z,101009.70
2022-10-30T05:18:08.763Z,101013.44
2022-10-30T05:20:38.431Z,101019.58
2022-10-30T05:23:12.017Z,101027.92
2022-10-30T05:25:41.097Z,101025.84
2022-10-30T05:28:10.440Z,101031.11
2022-10-30T05:30:38.860Z,101034.28
2022-10-30T05:33:10.499Z,101035.23
2022-10-30T05:35:39.365Z,101038.61
2022-10-30T05:38:08.519Z,101040.87
2022-10-30T05:40:37.289Z,101038.95
2022-10-30T05:43:05.939Z,101044.20
2022-10-30T05:45:34.768Z,101044.89
2022-10-30T05:48:05.249Z,101040.42
2022-10-30T05:50:34.297Z,101038.02
2022-10-30T05:53:04.209Z,101042.69
2022-10-30T05:55:33.003Z,101038.07
2022-10-30T05:58:02.904Z,101038.36
2022-10-30T06:00:33.513Z,101038.73
2022-10-30T06:03:03.449Z,101037.49
2022-10-30T06:05:33.691Z,101032.18
2022-10-30T06:08:02.668Z,101023.00
2022-10-30T06:10:31.260Z,101023.54
2022-10-30T06:13:01.236Z,101031.40
2022-10-30T06:15:30.886Z,101033.43
2022-10-30T06:17:59.937Z,101026.92
2022-10-30T06:20:29.896Z,101017.85
2022-10-30T06:22:59.277Z,101026.67
2022-10-30T06:25:28.740Z,101031.19
2022-10-30T06:27:58.874Z,101034.10
2022-10-30T06:30:28.029Z,101033.36
2022-10-30T06:33:00.447Z,101029.15
2022-10-30T06:35:29.596Z,101022.06
2022-10-30T06:37:59.615Z,101021.17
2022-10-30T06:40:29.418Z,101027.48
2022-10-30T06:42:58.317Z,101024.96
2022-10-30T06:45:26.909Z,101027.17
2022-10-30T06:47:55.619Z,101025.61
2022-10-30T06:50:24.415Z,101036.04
2022-10-30T06:52:55.060Z,101040.88
2022-10-30T06:55:23.679Z,101051.05
2022-10-30T06:57:55.928Z,101054.74
2022-10-30T07:00:25.206Z,101065.21
2022-10-30T07:02:58.466Z,101066.89
2022-10-30T07:05:27.399Z,101063.81
2022-10-30T07:07:57.990Z,101061.72
2022-10-30T07:10:26.448Z,101052.71
2022-10-30T07:12:56.525Z,101050.65
2022-10-30T07:15:26.200Z,101051.98
2022-10-30T07:17:56.367Z,101052.84
2022-10-30T07:20:26.014Z,101051.59
2022-10-30T07:22:54.510Z,101056.35
2022-10-30T07:25:23.216Z,101060.50
2022-10-30T07:27:52.920Z,101069.23
2022-10-30T07:30:23.156Z,101073.19
2022-10-30T07:32:59.157Z,101070.38
2022-10-30T07:35:28.689Z,101068.11
2022-10-30T07:38:00.228Z,101063.84
2022-10-30T07:40:29.143Z,101058.27
2022-10-30T07:42:58.810Z,101056.11
2022-10-30T07:45:27.852Z,101052.05
2022-10-30T07:47:57.096Z,101047.23
2022-10-30T07:50:26.854Z,101048.13
2022-10-30T07:52:55.946Z,101040.27
2022-10-30T07:55:25.001Z,101040.52
2022-10-30T07:57:53.543Z,101039.86
2022-10-30T08:00:22.575Z,101041.66
2022-10-30T08:02:52.513Z,101047.29
2022-10-30T08:05:24.351Z,101053.58
2022-10-30T08:07:58.234Z,101062.98
2022-10-30T08:10:27.154Z,101063.23
2022-10-30T08:12:55.660Z,101056.48
2022-10-30T08:15:26.314Z,101052.91
2022-10-30T08:17:54.877Z,101047.88
2022-10-30T08:20:26.209Z,101043.13
2022-10-30T08:22:57.103Z,101052.33
2022-10-30T08:25:28.253Z,101061.66
2022-10-30T08:27:59.902Z,101066.65
2022-10-30T08:30:30.103Z,101067.26
2022-10-30T08:32:59.835Z,101065.11
2022-10-30T08:35:29.474Z,101053.41
2022-10-30T08:37:59.161Z,101059.85
2022-10-30T08:40:28.435Z,101064.86
2022-10-30T08:42:58.742Z,101063.57
2022-10-30T08:45:30.885Z,101063.54
2022-10-30T08:48:01.831Z,101068.80
2022-10-30T08:50:32.087Z,101068.77
2022-10-30T08:53:03.324Z,101065.60
2022-10-30T08:55:33.160Z,101062.98
2022-10-30T08:58:02.812Z,101058.77
2022-10-30T09:00:31.729Z,101058.60
2022-10-30T09:03:01.179Z,101055.81
2022-10-30T09:05:31.106Z,101055.56
2022-10-30T09:08:01.604Z,101053.81
2022-10-30T09:10:31.773Z,101050.31
2022-10-30T09:13:01.872Z,101049.48
2022-10-30T09:15:30.985Z,101057.60
2022-10-30T09:18:00.590Z,101062.09
2022-10-30T09:20:30.409Z,101062.52
2022-10-30T09:22:59.307Z,101061.27
2022-10-30T09:25:28.357Z,101060.17
2022-10-30T09:27:57.246Z,101050.77
2022-10-30T09:30:27.332Z,101054.88
2022-10-30T09:32:58.491Z,101055.25
2022-10-30T09:35:27.974Z,101061.84
2022-10-30T09:37:58.107Z,101062.42
2022-10-30T09:40:37.886Z,101064.95
2022-10-30T09:43:10.957Z,101065.98
2022-10-30T09:46:20.143Z,101072.88
2022-10-30T09:49:14.701Z,101068.55
2022-10-30T09:51:55.394Z,101065.71
2022-10-30T09:54:34.891Z,101065.86
2022-10-30T09:57:07.399Z,101070.64
2022-10-30T09:59:45.011Z,101074.02
2022-10-30T10:02:31.428Z,101074.91
2022-10-30T10:05:03.996Z,101071.68
2022-10-30T10:07:36.691Z,101068.66
2022-10-30T10:10:10.581Z,101062.92
2022-10-30T10:12:42.109Z,101064.95
2022-10-30T10:15:14.850Z,101061.13
2022-10-30T10:17:45.934Z,101057.72
2022-10-30T10:20:20.192Z,101056.11
2022-10-30T10:22:50.102Z,101056.03
2022-10-30T10:25:20.951Z,101060.17
2022-10-30T10:28:02.640Z,101055.63
2022-10-30T10:30:39.537Z,101057.82
2022-10-30T10:33:40.548Z,101059.70
2022-10-30T10:36:21.595Z,101072.67
2022-10-30T10:39:01.675Z,101068.54
2022-10-30T10:41:53.515Z,101065.19
2022-10-30T10:44:31.317Z,101060.23
2022-10-30T10:47:26.622Z,101058.05
2022-10-30T10:50:07.888Z,101054.96
2022-10-30T10:52:39.634Z,101050.51
2022-10-30T10:55:14.920Z,101044.84
2022-10-30T10:57:44.295Z,101046.76
2022-10-30T11:00:17.815Z,101049.16
2022-10-30T11:02:51.942Z,101045.91
2022-10-30T11:05:23.319Z,101045.08
2022-10-30T11:07:52.100Z,101046.05
2022-10-30T11:10:23.101Z,101045.32
2022-10-30T11:12:51.686Z,101046.08
2022-10-30T11:15:42.377Z,101048.45
2022-10-30T11:18:11.462Z,101043.19
2022-10-30T11:20:44.246Z,101041.90
2022-10-30T11:23:40.963Z,101036.27
2022-10-30T11:26:28.202Z,101031.63
2022-10-30T11:28:59.612Z,101034.51
2022-10-30T11:31:34.304Z,101034.48
2022-10-30T11:34:16.240Z,101032.39
2022-10-30T11:36:45.628Z,101032.64
2022-10-30T11:39:19.627Z,101033.10
2022-10-30T11:41:54.709Z,101031.14
2022-10-30T11:44:27.210Z,101035.64
2022-10-30T11:46:56.556Z,101038.49
2022-10-30T11:49:27.555Z,101037.90
2022-10-30T11:51:56.084Z,101037.16
2022-10-30T11:54:25.188Z,101035.82
2022-10-30T11:56:54.582Z,101037.81
2022-10-30T11:59:25.120Z,101035.37
2022-10-30T12:02:01.918Z,101040.23
2022-10-30T12:04:32.536Z,101033.46
2022-10-30T12:07:19.799Z,101030.33
2022-10-30T12:09:48.739Z,101022.04
2022-10-30T12:12:23.584Z,101018.89
2022-10-30T12:14:53.125Z,101019.05
2022-10-30T12:17:22.575Z,101016.65
2022-10-30T12:19:52.955Z,101017.90
2022-10-30T12:22:32.339Z,101011.11
2022-10-30T12:25:04.645Z,101001.58
2022-10-30T12:27:37.063Z,101001.56
2022-10-30T12:30:15.175Z,101001.05
2022-10-30T12:32:49.104Z,101005.13
2022-10-30T12:35:35.912Z,101003.58
2022-10-30T12:38:07.467Z,101005.44
2022-10-30T12:40:43.816Z,101001.23
2022-10-30T12:43:18.717Z,101003.83
2022-10-30T12:45:57.473Z,101000.94
2022-10-30T12:48:31.407Z,100998.24
2022-10-30T12:51:12.755Z,101011.24
2022-10-30T12:53:49.984Z,101004.61
2022-10-30T12:56:22.450Z,100992.83
2022-10-30T12:58:54.308Z,100994.61
2022-10-30T13:01:28.065Z,100992.05
2022-10-30T13:03:57.524Z,100987.13
2022-10-30T13:06:29.329Z,100980.36
2022-10-30T13:09:08.170Z,100980.43
2022-10-30T13:11:41.248Z,100980.66
2022-10-30T13:14:19.085Z,100982.04
2022-10-30T13:16:50.639Z,100983.67
2022-10-30T13:19:19.282Z,100981.59
2022-10-30T13:21:56.421Z,100977.75
2022-10-30T13:24:33.807Z,100971.84
2022-10-30T13:27:05.447Z,100978.44
2022-10-30T13:29:39.940Z,100981.30
2022-10-30T13:32:34.123Z,100977.11
2022-10-30T13:35:15.156Z,100972.42
2022-10-30T13:37:49.214Z,100974.36
2022-10-30T13:40:21.016Z,100972.19
2022-10-30T13:42:59.139Z,100973.19
2022-10-30T13:45:52.676Z,100970.27
2022-10-30T13:48:30.409Z,100971.77
2022-10-30T13:51:26.688Z,100973.25
2022-10-30T13:54:03.189Z,100972.36
2022-10-30T13:56:35.706Z,100974.82
2022-10-30T13:59:12.244Z,100977.20
2022-10-30T14:01:46.317Z,100977.61
2022-10-30T14:04:19.670Z,100974.31
2022-10-30T14:06:56.958Z,100975.82
2022-10-30T14:09:33.091Z,100980.11
2022-10-30T14:12:40.448Z,100979.06
2022-10-30T14:15:17.456Z,100978.68
2022-10-30T14:18:18.022Z,100973.59
2022-10-30T14:20:47.444Z,100968.31
2022-10-30T14:23:20.110Z,100966.06
2022-10-30T14:26:18.745Z,100963.21
2022-10-30T14:28:49.830Z,100958.09
2022-10-30T14:31:20.666Z,100959.92
2022-10-30T14:33:51.001Z,100958.91
2022-10-30T14:36:25.576Z,100956.00
2022-10-30T14:38:58.634Z,100958.00
2022-10-30T14:41:45.105Z,100960.91
2022-10-30T14:44:37.329Z,100963.86
2022-10-30T14:47:29.040Z,100963.88
2022-10-30T14:50:01.566Z,100969.36
2022-10-30T14:52:36.526Z,100970.73
2022-10-30T14:55:25.259Z,100975.89
2022-10-30T14:58:21.508Z,100975.59
2022-10-30T15:00:51.298Z,100968.49
2022-10-30T15:03:42.682Z,100967.36
2022-10-30T15:06:21.132Z,100975.73
2022-10-30T15:09:04.339Z,100954.39
2022-10-30T15:11:42.847Z,100956.62
2022-10-30T15:14:21.695Z,100951.20
2022-10-30T15:17:01.664Z,100958.05
2022-10-30T15:19:31.221Z,100958.49
2022-10-30T15:22:00.970Z,100958.95
2022-10-30T15:24:32.511Z,100963.36
2022-10-30T15:27:04.405Z,100970.16
2022-10-30T15:29:37.735Z,100962.38
2022-10-30T15:32:18.585Z,100962.29
2022-10-30T15:34:55.343Z,100967.79
2022-10-30T15:37:24.021Z,100969.20
2022-10-30T15:40:10.246Z,100969.71
2022-10-30T15:42:39.870Z,100963.80
2022-10-30T15:45:15.519Z,100965.84
2022-10-30T15:47:47.629Z,100970.16
2022-10-30T15:50:19.403Z,100959.36
2022-10-30T15:52:47.897Z,100960.69
2022-10-30T15:55:18.365Z,100977.39
2022-10-30T15:58:02.848Z,100985.02
2022-10-30T16:00:39.196Z,100979.41
2022-10-30T16:03:17.053Z,100966.16
2022-10-30T16:05:45.667Z,100953.29
2022-10-30T16:08:16.314Z,100954.25
2022-10-30T16:10:48.747Z,100974.04
2022-10-30T16:13:22.338Z,100972.41
2022-10-30T16:15:51.798Z,100970.36
2022-10-30T16:18:24.327Z,100970.52
2022-10-30T16:20:54.550Z,100967.64
2022-10-30T16:23:24.733Z,100970.27
2022-10-30T16:25:59.135Z,100976.46
2022-10-30T16:28:30.961Z,100980.63
2022-10-30T16:31:03.755Z,100972.86
2022-10-30T16:33:34.964Z,100971.85
2022-10-30T16:36:04.854Z,100972.93
2022-10-30T16:38:36.125Z,100972.16
2022-10-30T16:41:07.539Z,100967.91
2022-10-30T16:43:38.814Z,100956.91
2022-10-30T16:46:32.246Z,100958.46
2022-10-30T16:49:03.928Z,100965.11
2022-10-30T16:51:32.957Z,100983.52
2022-10-30T16:54:01.875Z,100991.67
2022-10-30T16:56:36.817Z,100995.15
2022-10-30T16:59:15.666Z,100994.96
2022-10-30T17:01:44.463Z,101002.30
2022-10-30T17:04:26.914Z,101003.45
2022-10-30T17:07:24.036Z,101005.55
2022-10-30T17:10:03.938Z,101003.41
2022-10-30T17:12:35.785Z,101000.45
2022-10-30T17:15:13.179Z,101000.06
2022-10-30T17:17:45.579Z,100998.35
2022-10-30T17:20:29.968Z,100996.66
2022-10-30T17:23:30.860Z,100994.08
2022-10-30T17:26:21.669Z,100996.59
2022-10-30T17:28:50.716Z,100996.94
2022-10-30T17:31:31.303Z,100997.39
2022-10-30T17:34:17.176Z,101000.04
2022-10-30T17:36:47.116Z,101004.00
2022-10-30T17:39:15.851Z,101006.98
2022-10-30T17:41:45.498Z,101009.09
2022-10-30T17:44:18.602Z,101003.07
2022-10-30T17:46:47.748Z,100997.56
2022-10-30T17:49:24.171Z,100994.73
2022-10-30T17:51:52.789Z,100995.52
2022-10-30T17:54:21.618Z,100996.10
2022-10-30T17:56:50.751Z,100998.77
2022-10-30T17:59:19.546Z,100992.46
2022-10-30T18:01:49.175Z,100993.52
2022-10-30T18:04:20.749Z,100994.69
2022-10-30T18:06:50.240Z,100997.76
2022-10-30T18:09:19.169Z,100990.31
2022-10-30T18:11:47.617Z,100988.57
2022-10-30T18:14:15.996Z,100990.89
2022-10-30T18:16:44.944Z,100990.23
2022-10-30T18:19:13.327Z,100992.27
2022-10-30T18:21:42.001Z,100996.65
2022-10-30T18:24:13.543Z,101000.77
2022-10-30T18:26:42.350Z,100998.50
2022-10-30T18:29:11.707Z,100995.19
2022-10-30T18:31:41.181Z,100996.15
2022-10-30T18:34:15.853Z,100998.09
2022-10-30T18:36:44.749Z,100998.71
2022-10-30T18:39:13.448Z,101000.14
2022-10-30T18:41:44.113Z,101000.41
2022-10-30T18:44:15.317Z,100997.08
2022-10-30T18:46:44.265Z,100994.07
2022-10-30T18:49:13.298Z,100991.71
2022-10-30T18:51:41.980Z,100990.64
2022-10-30T18:54:14.952Z,100989.20
2022-10-30T18:56:44.420Z,100988.36
2022-10-30T18:59:12.790Z,100987.23
2022-10-30T19:01:45.409Z,100987.68
2022-10-30T19:04:19.285Z,100987.90
2022-10-30T19:06:50.798Z,100986.04
2022-10-30T19:09:19.992Z,100986.13
2022-10-30T19:11:48.565Z,100989.17
2022-10-30T19:14:17.465Z,100989.44
2022-10-30T19:16:46.773Z,100988.41
2022-10-30T19:19:15.588Z,100991.67
2022-10-30T19:21:44.499Z,100991.04
2022-10-30T19:24:17.331Z,100992.83
2022-10-30T19:26:46.175Z,100990.19
2022-10-30T19:29:14.943Z,100995.81
2022-10-30T19:31:43.619Z,100994.16
2022-10-30T19:34:12.359Z,100991.71
2022-10-30T19:36:43.489Z,100992.78
2022-10-30T19:39:13.790Z,100989.70
2022-10-30T19:41:42.545Z,100996.19
2022-10-30T19:44:11.102Z,100992.42
2022-10-30T19:46:39.894Z,100996.09
2022-10-30T19:49:17.553Z,100998.05
2022-10-30T19:51:46.357Z,101000.13
2022-10-30T19:54:16.411Z,101001.85
2022-10-30T19:56:45.379Z,101003.59
2022-10-30T19:59:15.131Z,101001.23
2022-10-30T20:01:44.208Z,100999.89
2022-10-30T20:04:13.171Z,101001.29
2022-10-30T20:06:41.748Z,101011.12
2022-10-30T20:09:11.760Z,101013.13
2022-10-30T20:11:40.103Z,101016.52
2022-10-30T20:14:08.893Z,101020.92
2022-10-30T20:16:37.299Z,101019.80
2022-10-30T20:19:25.064Z,101020.00
2022-10-30T20:21:54.861Z,101022.15
2022-10-30T20:24:23.839Z,101019.74
2022-10-30T20:26:52.992Z,101019.75
2022-10-30T20:29:21.977Z,101018.32
2022-10-30T20:31:50.487Z,101018.52
2022-10-30T20:34:18.918Z,101022.28
2022-10-30T20:36:47.434Z,101027.06
2022-10-30T20:39:16.085Z,101021.61
2022-10-30T20:41:44.815Z,101027.29
2022-10-30T20:44:13.563Z,101028.69
2022-10-30T20:46:42.269Z,101030.89
2022-10-30T20:49:17.153Z,101031.69
2022-10-30T20:51:47.600Z,101032.35
2022-10-30T20:54:16.804Z,101034.61
2022-10-30T20:56:45.269Z,101033.05
2022-10-30T20:59:14.733Z,101033.05
2022-10-30T21:01:43.223Z,101026.27
2022-10-30T21:04:11.870Z,101025.65
2022-10-30T21:06:40.756Z,101026.95
2022-10-30T21:09:09.228Z,101028.16
2022-10-30T21:11:37.596Z,101023.30
2022-10-30T21:14:06.389Z,101022.59
2022-10-30T21:16:34.806Z,101025.60
2022-10-30T21:19:03.615Z,101024.92
2022-10-30T21:21:32.190Z,101028.75
2022-10-30T21:24:00.686Z,101021.38
2022-10-30T21:26:29.165Z,101019.15
2022-10-30T21:28:58.311Z,101020.67
2022-10-30T21:31:26.918Z,101022.11
2022-10-30T21:33:55.353Z,101021.52
2022-10-30T21:36:24.383Z,101021.73
2022-10-30T21:38:53.094Z,101025.70
2022-10-30T21:41:22.197Z,101024.74
2022-10-30T21:43:52.634Z,101025.12
2022-10-30T21:46:22.687Z,101024.91
2022-10-30T21:48:51.626Z,101024.41
2022-10-30T21:51:21.548Z,101029.52
2022-10-30T21:53:50.364Z,101026.57
2022-10-30T21:56:20.573Z,101021.94
2022-10-30T21:58:50.034Z,101021.23
2022-10-30T22:01:20.868Z,101022.77
2022-10-30T22:03:49.714Z,101023.13
2022-10-30T22:06:19.818Z,101024.04
2022-10-30T22:08:49.644Z,101021.31
2022-10-30T22:11:19.037Z,101020.82
2022-10-30T22:13:47.511Z,101018.14
2022-10-30T22:16:16.113Z,101015.36
2022-10-30T22:18:44.595Z,101010.48
2022-10-30T22:21:13.916Z,101005.38
2022-10-30T22:23:47.147Z,101006.79
2022-10-30T22:26:17.637Z,101007.36
2022-10-30T22:28:51.701Z,101007.95
2022-10-30T22:31:22.236Z,101007.05
2022-10-30T22:33:51.134Z,101007.29
2022-10-30T22:36:22.088Z,101005.87
2022-10-30T22:38:56.564Z,100999.46
2022-10-30T22:41:25.684Z,100999.27
2022-10-30T22:43:55.022Z,100994.78
2022-10-30T22:46:26.117Z,100997.02
2022-10-30T22:48:55.171Z,100993.45
2022-10-30T22:51:23.961Z,100999.73
2022-10-30T22:53:57.852Z,101002.15
2022-10-30T22:56:25.883Z,101001.00
2022-10-30T22:58:55.752Z,101001.49
2022-10-30T23:01:26.476Z,100996.90
2022-10-30T23:03:57.317Z,101004.30
2022-10-30T23:06:26.601Z,101001.42
2022-10-30T23:08:56.414Z,101005.27
2022-10-30T23:11:25.790Z,101010.48
2022-10-30T23:13:54.297Z,101010.21
2022-10-30T23:16:23.995Z,101010.98
2022-10-30T23:18:55.953Z,101009.80
2022-10-30T23:21:27.813Z,101007.31
2022-10-30T23:23:57.130Z,101009.57
2022-10-30T23:26:28.513Z,101009.27
2022-10-30T23:28:58.621Z,101010.77
2022-10-30T23:31:29.464Z,101012.14
2022-10-30T23:33:59.964Z,101018.20
2022-10-30T23:36:30.038Z,101016.78
2022-10-30T23:39:00.226Z,101017.10
2022-10-30T23:41:30.488Z,101017.39
2022-10-30T23:44:05.830Z,101018.41
2022-10-30T23:46:35.162Z,101022.73
2022-10-30T23:49:04.094Z,101024.88
2022-10-30T23:51:35.265Z,101018.30
2022-10-30T23:54:07.923Z,101020.46
2022-10-30T23:56:36.574Z,101021.46
2022-10-30T23:59:09.764Z,101024.46
